Time;durP1;ratioP1;P1;durP2;ratioP2;P2;SDS_P1;SDS_P2;PMS_P1;PMS_P2;Temp;Humidity;BMP_temperature;BMP_pressure;BME280_temperature;BME280_humidity;BME280_pressure;Samples;Min_cycle;Max_cycle;Signal;HPM_P1;HPM_P2
2023/09/20 00:00:24;;;;;;;8.88;4.20;;;;;;;;;;5050732;28;20045;-64
2023/09/20 00:02:50;;;;;;;10.68;5.10;;;;;;;;;;5050475;28;20057;-64
2023/09/20 00:05:18;;;;;;;8.75;3.67;;;;;;;;;;5050630;28;20124;-64
2023/09/20 00:07:44;;;;;;;9.75;3.80;;;;;;;;;;5050882;28;20045;-64
2023/09/20 00:10:12;;;;;;;8.88;3.75;;;;;;;;;;5049991;28;20041;-64
2023/09/20 00:12:40;;;;;;;15.70;3.90;;;;;;;;;;5050739;28;20055;-64
2023/09/20 00:15:10;;;;;;;15.98;4.13;;;;;;;;;;5050444;28;20041;-64
2023/09/20 00:17:36;;;;;;;14.20;4.15;;;;;;;;;;5035160;28;20121;-64
2023/09/20 00:20:09;;;;;;;10.02;3.97;;;;;;;;;;5012850;28;20088;-64
2023/09/20 00:22:37;;;;;;;13.18;3.95;;;;;;;;;;5030727;28;20041;-64
2023/09/20 00:25:03;;;;;;;11.20;4.18;;;;;;;;;;5032295;28;20484;-64
2023/09/20 00:27:29;;;;;;;12.48;4.05;;;;;;;;;;5050587;28;20498;-64
2023/09/20 00:29:55;;;;;;;10.98;3.95;;;;;;;;;;5052353;28;20045;-64
2023/09/20 00:32:21;;;;;;;15.07;4.38;;;;;;;;;;5053961;28;20383;-64
2023/09/20 00:34:48;;;;;;;9.27;3.63;;;;;;;;;;5053915;28;20045;-65
2023/09/20 00:37:14;;;;;;;12.20;3.78;;;;;;;;;;5053901;28;20136;-65
2023/09/20 00:39:41;;;;;;;7.65;4.13;;;;;;;;;;5053611;28;20120;-65
2023/09/20 00:42:08;;;;;;;16.13;3.95;;;;;;;;;;5053851;28;20045;-65
2023/09/20 00:44:35;;;;;;;11.68;3.65;;;;;;;;;;5054073;28;20041;-65
2023/09/20 00:47:03;;;;;;;16.90;3.92;;;;;;;;;;5053856;28;20037;-65
2023/09/20 00:49:30;;;;;;;15.30;4.15;;;;;;;;;;5054103;28;20095;-65
2023/09/20 00:51:56;;;;;;;9.82;3.30;;;;;;;;;;5053530;28;20068;-65
2023/09/20 00:54:23;;;;;;;14.88;4.22;;;;;;;;;;5053273;28;20079;-65
2023/09/20 00:56:49;;;;;;;12.80;3.13;;;;;;;;;;5053523;28;20055;-65
2023/09/20 00:59:15;;;;;;;9.57;4.78;;;;;;;;;;5035960;28;20041;-65
2023/09/20 01:01:42;;;;;;;9.70;3.13;;;;;;;;;;5053255;28;20587;-65
2023/09/20 01:04:08;;;;;;;10.60;3.67;;;;;;;;;;5053615;28;20128;-65
2023/09/20 01:06:34;;;;;;;11.95;3.53;;;;;;;;;;5053735;28;20598;-65
2023/09/20 01:09:01;;;;;;;10.30;3.83;;;;;;;;;;5053160;28;20697;-65
2023/09/20 01:11:27;;;;;;;9.82;3.45;;;;;;;;;;5053442;28;20051;-65
2023/09/20 01:13:53;;;;;;;7.85;3.30;;;;;;;;;;5035614;28;20041;-65
2023/09/20 01:16:19;;;;;;;10.07;3.47;;;;;;;;;;5048905;28;20037;-65
2023/09/20 01:18:45;;;;;;;7.35;3.42;;;;;;;;;;5033493;28;20041;-65
2023/09/20 01:21:12;;;;;;;10.32;3.40;;;;;;;;;;5033517;28;20604;-65
2023/09/20 01:23:38;;;;;;;7.57;3.20;;;;;;;;;;5032747;28;20124;-65
2023/09/20 01:26:05;;;;;;;10.30;3.28;;;;;;;;;;5043350;28;20048;-65
2023/09/20 01:28:31;;;;;;;10.25;3.00;;;;;;;;;;5053319;28;20064;-65
2023/09/20 01:31:00;;;;;;;9.65;3.42;;;;;;;;;;5053180;28;20073;-65
2023/09/20 01:33:26;;;;;;;10.10;3.50;;;;;;;;;;5053152;28;20091;-65
2023/09/20 01:35:54;;;;;;;6.72;3.25;;;;;;;;;;5053070;28;20052;-65
2023/09/20 01:38:20;;;;;;;12.32;3.55;;;;;;;;;;5053251;28;20037;-65
2023/09/20 01:40:46;;;;;;;13.05;3.63;;;;;;;;;;5052209;28;20052;-65
2023/09/20 01:43:13;;;;;;;11.07;3.28;;;;;;;;;;5052857;28;20084;-65
2023/09/20 01:45:42;;;;;;;8.70;3.47;;;;;;;;;;5052838;28;20483;-64
2023/09/20 01:48:11;;;;;;;8.80;3.40;;;;;;;;;;5052536;28;20520;-64
2023/09/20 01:50:38;;;;;;;10.15;3.60;;;;;;;;;;5052212;28;20056;-64
2023/09/20 01:53:08;;;;;;;9.63;3.30;;;;;;;;;;5052796;28;20040;-64
2023/09/20 01:55:37;;;;;;;11.02;3.25;;;;;;;;;;5052255;28;20047;-64
2023/09/20 01:58:05;;;;;;;10.73;3.25;;;;;;;;;;5052885;28;20488;-64
2023/09/20 02:00:40;;;;;;;10.13;3.53;;;;;;;;;;5052482;28;20049;-64
2023/09/20 02:03:19;;;;;;;8.48;3.22;;;;;;;;;;5052958;28;20060;-64
2023/09/20 02:05:47;;;;;;;11.30;3.17;;;;;;;;;;5052388;28;20045;-64
2023/09/20 02:08:13;;;;;;;13.40;3.58;;;;;;;;;;5052174;28;20399;-64
2023/09/20 02:10:39;;;;;;;9.90;3.15;;;;;;;;;;5052499;28;20033;-64
2023/09/20 02:13:05;;;;;;;8.93;3.63;;;;;;;;;;5034764;28;20052;-64
2023/09/20 02:15:34;;;;;;;10.30;3.50;;;;;;;;;;5051837;28;20584;-64
2023/09/20 02:18:01;;;;;;;10.35;3.03;;;;;;;;;;5034497;28;20040;-64
2023/09/20 02:20:30;;;;;;;10.45;2.83;;;;;;;;;;5032541;28;20053;-64
2023/09/20 02:22:57;;;;;;;10.13;3.03;;;;;;;;;;5031668;28;20045;-64
2023/09/20 02:25:26;;;;;;;13.68;2.97;;;;;;;;;;5036763;28;20075;-64
2023/09/20 02:27:52;;;;;;;10.95;3.42;;;;;;;;;;5052163;28;20037;-64
2023/09/20 02:30:19;;;;;;;11.63;3.00;;;;;;;;;;5051495;28;20041;-64
2023/09/20 02:32:50;;;;;;;11.40;2.78;;;;;;;;;;5051916;28;20060;-64
2023/09/20 02:35:16;;;;;;;10.20;3.22;;;;;;;;;;5051850;28;20375;-64
2023/09/20 02:37:43;;;;;;;11.52;3.30;;;;;;;;;;5051469;28;20041;-64
2023/09/20 02:40:13;;;;;;;12.30;3.10;;;;;;;;;;5051768;28;20041;-64
2023/09/20 02:42:49;;;;;;;9.80;3.60;;;;;;;;;;5051795;28;20072;-64
2023/09/20 02:45:16;;;;;;;7.57;4.25;;;;;;;;;;5051321;28;20598;-64
2023/09/20 02:47:43;;;;;;;7.97;3.25;;;;;;;;;;5051789;28;20041;-64
2023/09/20 02:50:10;;;;;;;11.38;3.33;;;;;;;;;;5051483;28;20492;-65
2023/09/20 02:52:36;;;;;;;8.48;2.72;;;;;;;;;;5050737;28;20048;-65
2023/09/20 02:55:08;;;;;;;11.85;2.70;;;;;;;;;;5051474;28;20041;-65
2023/09/20 02:57:37;;;;;;;7.70;3.10;;;;;;;;;;5051652;28;20522;-65
2023/09/20 03:00:14;;;;;;;12.77;3.00;;;;;;;;;;5051206;28;20607;-65
2023/09/20 03:02:43;;;;;;;12.85;3.00;;;;;;;;;;5051567;28;20041;-65
2023/09/20 03:05:09;;;;;;;9.20;3.10;;;;;;;;;;5051333;28;20084;-65
2023/09/20 03:07:35;;;;;;;8.95;3.22;;;;;;;;;;5051153;28;20484;-65
2023/09/20 03:10:05;;;;;;;7.05;3.33;;;;;;;;;;5051319;28;20045;-65
2023/09/20 03:12:31;;;;;;;8.65;2.90;;;;;;;;;;5051403;28;20041;-65
2023/09/20 03:14:59;;;;;;;10.93;3.53;;;;;;;;;;5050664;28;20464;-65
2023/09/20 03:17:25;;;;;;;8.85;3.03;;;;;;;;;;5037949;28;20037;-65
2023/09/20 03:19:53;;;;;;;12.45;3.40;;;;;;;;;;5031298;28;20461;-65
2023/09/20 03:22:19;;;;;;;11.90;3.45;;;;;;;;;;5030905;28;20095;-65
2023/09/20 03:24:47;;;;;;;14.32;3.30;;;;;;;;;;5031201;28;20034;-65
2023/09/20 03:27:15;;;;;;;8.95;3.35;;;;;;;;;;5031153;28;20041;-65
2023/09/20 03:29:42;;;;;;;8.40;3.80;;;;;;;;;;5030723;28;20033;-65
2023/09/20 03:32:09;;;;;;;9.85;3.20;;;;;;;;;;5031121;28;20057;-65
2023/09/20 03:34:35;;;;;;;12.50;3.25;;;;;;;;;;5031057;28;20068;-65
2023/09/20 03:37:01;;;;;;;11.90;3.20;;;;;;;;;;5030858;28;20073;-65
2023/09/20 03:39:27;;;;;;;14.13;3.75;;;;;;;;;;5030722;28;20490;-65
2023/09/20 03:41:54;;;;;;;11.52;3.80;;;;;;;;;;5031034;28;20120;-65
2023/09/20 03:44:20;;;;;;;11.50;3.50;;;;;;;;;;5030738;28;20037;-65
2023/09/20 03:46:47;;;;;;;14.07;3.53;;;;;;;;;;5029959;28;20116;-65
2023/09/20 03:49:15;;;;;;;10.88;3.53;;;;;;;;;;5031079;28;20100;-65
2023/09/20 03:51:41;;;;;;;15.52;3.42;;;;;;;;;;5030173;28;20058;-65
2023/09/20 03:54:08;;;;;;;9.43;3.13;;;;;;;;;;5030539;28;20076;-65
2023/09/20 03:56:35;;;;;;;10.80;3.38;;;;;;;;;;5031012;28;20045;-65
2023/09/20 03:59:01;;;;;;;12.50;3.33;;;;;;;;;;5030641;28;20045;-65
2023/09/20 04:01:28;;;;;;;13.68;4.07;;;;;;;;;;5030892;28;20041;-65
2023/09/20 04:03:54;;;;;;;8.43;3.92;;;;;;;;;;5031230;28;20041;-65
2023/09/20 04:06:20;;;;;;;9.38;3.45;;;;;;;;;;5035037;28;20775;-65
2023/09/20 04:08:46;;;;;;;11.38;3.67;;;;;;;;;;5034476;28;20042;-65
2023/09/20 04:11:12;;;;;;;10.18;3.47;;;;;;;;;;5034577;28;20056;-65
2023/09/20 04:13:38;;;;;;;9.23;3.25;;;;;;;;;;5034790;28;20037;-65
2023/09/20 04:16:04;;;;;;;9.02;3.03;;;;;;;;;;5036379;28;20124;-65
2023/09/20 04:18:31;;;;;;;10.55;3.47;;;;;;;;;;5054673;28;20045;-65
2023/09/20 04:20:57;;;;;;;11.77;3.35;;;;;;;;;;5054532;28;20063;-65
2023/09/20 04:23:24;;;;;;;11.90;3.67;;;;;;;;;;5053738;28;20053;-65
2023/09/20 04:25:51;;;;;;;9.13;3.00;;;;;;;;;;5054001;28;20116;-65
2023/09/20 04:28:17;;;;;;;13.00;3.60;;;;;;;;;;5054053;28;20402;-64
2023/09/20 04:30:44;;;;;;;9.85;3.47;;;;;;;;;;5053847;28;20120;-64
2023/09/20 04:33:10;;;;;;;13.98;3.42;;;;;;;;;;5053926;28;20045;-64
2023/09/20 04:35:37;;;;;;;11.20;2.90;;;;;;;;;;5053794;28;20037;-64
2023/09/20 04:38:03;;;;;;;14.27;4.40;;;;;;;;;;5053790;28;20091;-64
2023/09/20 04:40:29;;;;;;;11.68;2.95;;;;;;;;;;5054004;28;20091;-64
2023/09/20 04:42:55;;;;;;;8.75;3.17;;;;;;;;;;5053805;28;20086;-64
2023/09/20 04:45:22;;;;;;;11.07;3.40;;;;;;;;;;5053247;28;20041;-64
2023/09/20 04:47:49;;;;;;;7.97;3.20;;;;;;;;;;5053958;28;20048;-64
2023/09/20 04:50:16;;;;;;;10.93;3.30;;;;;;;;;;5053604;28;20654;-64
2023/09/20 04:52:43;;;;;;;11.90;3.63;;;;;;;;;;5035265;28;20498;-64
2023/09/20 04:55:12;;;;;;;10.18;3.08;;;;;;;;;;5053442;28;20033;-64
2023/09/20 04:57:38;;;;;;;9.63;2.90;;;;;;;;;;5053767;28;20045;-64
2023/09/20 05:00:15;;;;;;;7.55;2.97;;;;;;;;;;5053132;28;20098;-65
2023/09/20 05:02:45;;;;;;;7.00;3.53;;;;;;;;;;5053881;28;20037;-65
2023/09/20 05:05:12;;;;;;;11.95;3.83;;;;;;;;;;5053610;28;20078;-65
2023/09/20 05:07:38;;;;;;;12.82;3.70;;;;;;;;;;5053307;28;20048;-65
2023/09/20 05:10:06;;;;;;;10.75;3.78;;;;;;;;;;5053628;28;20040;-65
2023/09/20 05:12:32;;;;;;;10.68;3.35;;;;;;;;;;5053623;28;20395;-65
2023/09/20 05:14:58;;;;;;;7.75;2.80;;;;;;;;;;5052516;28;20033;-65
2023/09/20 05:17:24;;;;;;;12.48;4.03;;;;;;;;;;5053422;28;20510;-64
2023/09/20 05:19:50;;;;;;;7.13;3.00;;;;;;;;;;5053598;28;20029;-64
2023/09/20 05:22:16;;;;;;;12.52;3.60;;;;;;;;;;5052954;28;20032;-64
2023/09/20 05:24:42;;;;;;;10.90;3.30;;;;;;;;;;5053348;28;20044;-64
2023/09/20 05:27:08;;;;;;;8.95;2.53;;;;;;;;;;5052983;28;20049;-64
2023/09/20 05:29:34;;;;;;;8.63;3.33;;;;;;;;;;5052910;28;20119;-64
2023/09/20 05:32:00;;;;;;;9.55;3.53;;;;;;;;;;5052966;28;20041;-64
2023/09/20 05:34:26;;;;;;;10.65;2.75;;;;;;;;;;5053144;28;20048;-64
2023/09/20 05:36:53;;;;;;;9.80;3.25;;;;;;;;;;5052794;28;20037;-64
2023/09/20 05:39:19;;;;;;;8.25;3.03;;;;;;;;;;5053022;28;20080;-64
2023/09/20 05:41:45;;;;;;;10.70;3.35;;;;;;;;;;5052979;28;20063;-64
2023/09/20 05:44:11;;;;;;;6.28;2.80;;;;;;;;;;5052584;28;20048;-64
2023/09/20 05:46:37;;;;;;;9.57;3.10;;;;;;;;;;5053050;28;20606;-64
2023/09/20 05:49:03;;;;;;;9.93;3.33;;;;;;;;;;5052887;28;20044;-64
2023/09/20 05:51:30;;;;;;;8.75;2.83;;;;;;;;;;5051974;28;20136;-64
2023/09/20 05:53:56;;;;;;;8.13;2.67;;;;;;;;;;5052677;28;20091;-64
2023/09/20 05:56:22;;;;;;;12.18;4.00;;;;;;;;;;5052935;28;20090;-64
2023/09/20 05:58:49;;;;;;;7.18;3.13;;;;;;;;;;5052385;28;20079;-64
2023/09/20 06:01:17;;;;;;;11.27;3.35;;;;;;;;;;5052818;28;20053;-64
2023/09/20 06:03:44;;;;;;;11.63;3.33;;;;;;;;;;5052708;28;20072;-64
2023/09/20 06:06:10;;;;;;;10.40;3.05;;;;;;;;;;5051887;28;20045;-64
2023/09/20 06:08:36;;;;;;;8.45;3.10;;;;;;;;;;5052745;28;20357;-64
2023/09/20 06:11:04;;;;;;;8.63;2.88;;;;;;;;;;5052491;28;20179;-64
2023/09/20 06:13:31;;;;;;;6.82;3.17;;;;;;;;;;5052040;28;20099;-64
2023/09/20 06:15:57;;;;;;;6.22;2.80;;;;;;;;;;5051043;28;20130;-64
2023/09/20 06:18:24;;;;;;;8.25;2.55;;;;;;;;;;5032577;28;20048;-64
2023/09/20 06:20:51;;;;;;;7.43;2.72;;;;;;;;;;5032071;28;20049;-64
2023/09/20 06:23:18;;;;;;;9.38;3.45;;;;;;;;;;5032426;28;20045;-64
2023/09/20 06:25:47;;;;;;;9.35;3.00;;;;;;;;;;5039587;28;20063;-64
2023/09/20 06:28:13;;;;;;;8.40;3.13;;;;;;;;;;5050861;28;20687;-64
2023/09/20 06:30:43;;;;;;;7.53;2.72;;;;;;;;;;5052135;28;20583;-64
2023/09/20 06:33:09;;;;;;;11.73;3.20;;;;;;;;;;5051951;28;20055;-64
2023/09/20 06:35:41;;;;;;;11.70;3.35;;;;;;;;;;5051416;28;20093;-64
2023/09/20 06:38:09;;;;;;;5.80;2.85;;;;;;;;;;5051974;28;20045;-64
2023/09/20 06:40:38;;;;;;;7.82;3.10;;;;;;;;;;5051837;28;20541;-64
2023/09/20 06:43:06;;;;;;;11.90;3.33;;;;;;;;;;5051506;28;20080;-64
2023/09/20 06:45:32;;;;;;;9.05;3.20;;;;;;;;;;5051757;28;20041;-64
2023/09/20 06:47:59;;;;;;;12.65;3.08;;;;;;;;;;5051860;28;20048;-64
2023/09/20 06:50:25;;;;;;;11.57;3.53;;;;;;;;;;5051060;28;20056;-64
2023/09/20 06:52:51;;;;;;;7.63;2.80;;;;;;;;;;5051599;28;20122;-64
2023/09/20 06:55:19;;;;;;;9.18;3.38;;;;;;;;;;5051578;28;20046;-64
2023/09/20 06:57:47;;;;;;;10.48;3.30;;;;;;;;;;5051309;28;20041;-64
2023/09/20 07:00:24;;;;;;;7.65;3.70;;;;;;;;;;5051712;28;20494;-64
2023/09/20 07:02:51;;;;;;;9.02;3.72;;;;;;;;;;5051625;28;20411;-64
2023/09/20 07:05:18;;;;;;;10.15;3.30;;;;;;;;;;5050964;28;20045;-64
2023/09/20 07:07:45;;;;;;;7.00;3.33;;;;;;;;;;5051459;28;20403;-64
2023/09/20 07:10:11;;;;;;;11.50;3.03;;;;;;;;;;5051390;28;20123;-64
2023/09/20 07:12:38;;;;;;;8.93;3.30;;;;;;;;;;5050552;28;20041;-64
2023/09/20 07:15:08;;;;;;;9.48;3.33;;;;;;;;;;5032724;28;20471;-64
2023/09/20 07:17:35;;;;;;;10.30;3.47;;;;;;;;;;5046908;28;20052;-64
2023/09/20 07:20:08;;;;;;;10.68;3.28;;;;;;;;;;5050055;28;20392;-65
2023/09/20 07:22:34;;;;;;;7.90;3.35;;;;;;;;;;5051493;28;20149;-65
2023/09/20 07:25:04;;;;;;;10.00;3.75;;;;;;;;;;5050732;28;20040;-65
2023/09/20 07:27:32;;;;;;;9.93;3.05;;;;;;;;;;5051059;28;20048;-65
2023/09/20 07:29:59;;;;;;;8.40;3.65;;;;;;;;;;5050611;28;20045;-65
2023/09/20 07:32:26;;;;;;;11.18;3.70;;;;;;;;;;5049993;28;20740;-64
2023/09/20 07:34:59;;;;;;;10.52;3.50;;;;;;;;;;5025395;28;20500;-64
2023/09/20 07:37:25;;;;;;;9.02;3.85;;;;;;;;;;5039271;28;20053;-65
2023/09/20 07:39:52;;;;;;;9.07;3.35;;;;;;;;;;5050851;28;20037;-65
2023/09/20 07:42:20;;;;;;;7.60;3.40;;;;;;;;;;5049442;28;20036;-66
2023/09/20 07:44:46;;;;;;;9.43;3.60;;;;;;;;;;5049736;28;20041;-66
2023/09/20 07:47:13;;;;;;;9.23;3.08;;;;;;;;;;5030195;28;20068;-66
2023/09/20 07:49:39;;;;;;;12.40;3.70;;;;;;;;;;5049510;28;20037;-66
2023/09/20 07:52:06;;;;;;;12.95;3.08;;;;;;;;;;5050113;28;20049;-66
2023/09/20 07:54:32;;;;;;;9.07;3.03;;;;;;;;;;5049459;28;20159;-65
2023/09/20 07:56:58;;;;;;;6.45;3.35;;;;;;;;;;5048511;28;20503;-65
2023/09/20 07:59:26;;;;;;;8.25;3.45;;;;;;;;;;5050423;28;20045;-65
2023/09/20 08:01:53;;;;;;;10.57;3.13;;;;;;;;;;5049314;28;20045;-66
2023/09/20 08:04:19;;;;;;;9.18;3.88;;;;;;;;;;5049925;28;20063;-65
2023/09/20 08:06:46;;;;;;;12.10;3.30;;;;;;;;;;5049370;28;20442;-65
2023/09/20 08:09:12;;;;;;;10.50;3.63;;;;;;;;;;5050496;28;20045;-65
2023/09/20 08:11:38;;;;;;;8.88;3.70;;;;;;;;;;5049525;28;20475;-65
2023/09/20 08:14:04;;;;;;;6.82;3.08;;;;;;;;;;5049473;28;20063;-65
2023/09/20 08:16:34;;;;;;;6.90;3.10;;;;;;;;;;5032364;28;20041;-65
2023/09/20 08:19:21;;;;;;;11.88;3.53;;;;;;;;;;5049070;28;20388;-65
2023/09/20 08:21:47;;;;;;;6.18;2.92;;;;;;;;;;5049688;28;20044;-66
2023/09/20 09:00:22;;;;;;;7.13;3.47;;;;;;;;;;5052176;28;20053;-66
2023/09/20 09:02:54;;;;;;;9.77;3.60;;;;;;;;;;5051105;28;20037;-66
2023/09/20 09:05:22;;;;;;;6.80;3.15;;;;;;;;;;5035105;28;20066;-66
2023/09/20 09:07:49;;;;;;;8.38;3.00;;;;;;;;;;5033779;28;20073;-66
2023/09/20 09:10:15;;;;;;;6.95;2.97;;;;;;;;;;5052653;28;20053;-66
2023/09/20 09:12:42;;;;;;;8.63;3.17;;;;;;;;;;5047569;28;20033;-66
2023/09/20 09:15:16;;;;;;;6.88;3.00;;;;;;;;;;5042769;28;20557;-65
2023/09/20 09:17:46;;;;;;;8.75;2.90;;;;;;;;;;5049291;28;20076;-65
2023/09/20 09:20:13;;;;;;;6.07;3.13;;;;;;;;;;5047274;28;20091;-67
2023/09/20 09:22:39;;;;;;;11.30;3.40;;;;;;;;;;5052634;28;20083;-67
2023/09/20 09:25:11;;;;;;;8.00;2.90;;;;;;;;;;5051579;28;20379;-67
2023/09/20 09:27:38;;;;;;;8.40;3.38;;;;;;;;;;5052465;28;20119;-67
2023/09/20 09:30:05;;;;;;;7.05;2.67;;;;;;;;;;5052571;28;20048;-67
2023/09/20 09:32:37;;;;;;;5.00;2.63;;;;;;;;;;5051719;28;20125;-66
2023/09/20 09:35:07;;;;;;;7.57;2.60;;;;;;;;;;5052718;28;20041;-66
2023/09/20 09:37:34;;;;;;;13.30;3.40;;;;;;;;;;5052218;28;20041;-67
2023/09/20 09:40:05;;;;;;;11.13;3.38;;;;;;;;;;5051403;28;20076;-67
2023/09/20 09:42:31;;;;;;;7.20;3.00;;;;;;;;;;5052152;28;20090;-67
2023/09/20 09:45:04;;;;;;;6.90;2.50;;;;;;;;;;5051665;28;20040;-67
2023/09/20 09:47:30;;;;;;;5.95;2.30;;;;;;;;;;5034367;28;20044;-67
2023/09/20 09:49:59;;;;;;;6.57;2.88;;;;;;;;;;5051337;28;20137;-67
2023/09/20 09:52:27;;;;;;;9.18;2.65;;;;;;;;;;5051673;28;20094;-67
2023/09/20 09:54:54;;;;;;;7.82;2.67;;;;;;;;;;5051655;28;20076;-67
2023/09/20 09:57:20;;;;;;;6.95;2.45;;;;;;;;;;5051692;28;20090;-67
2023/09/20 09:59:47;;;;;;;3.75;1.98;;;;;;;;;;5052440;28;20060;-68
2023/09/20 10:02:17;;;;;;;4.45;2.30;;;;;;;;;;5050669;28;20123;-67
2023/09/20 10:04:51;;;;;;;9.57;2.90;;;;;;;;;;5051256;28;20064;-67
2023/09/20 10:07:19;;;;;;;4.10;2.58;;;;;;;;;;5052036;28;20041;-67
2023/09/20 10:09:50;;;;;;;5.80;2.20;;;;;;;;;;5031300;28;20751;-67
2023/09/20 10:12:17;;;;;;;4.80;2.10;;;;;;;;;;5051259;28;20044;-67
2023/09/20 10:14:44;;;;;;;5.28;2.28;;;;;;;;;;5033409;28;20041;-68
2023/09/20 10:17:20;;;;;;;6.88;2.00;;;;;;;;;;5032538;28;20456;-68
2023/09/20 10:19:49;;;;;;;8.23;2.20;;;;;;;;;;5033850;28;20124;-68
2023/09/20 10:22:19;;;;;;;4.88;2.25;;;;;;;;;;5032334;28;20128;-67
2023/09/20 10:24:53;;;;;;;4.30;1.83;;;;;;;;;;5051346;28;20080;-67
2023/09/20 10:27:23;;;;;;;7.63;2.40;;;;;;;;;;5032549;28;20053;-67
2023/09/20 10:30:05;;;;;;;6.78;2.20;;;;;;;;;;5051003;28;20095;-67
2023/09/20 10:32:31;;;;;;;;;;;;;;;;;;5032851;28;20099;-67
2023/09/20 10:35:18;;;;;;;3.75;1.85;;;;;;;;;;5032700;28;19924;-67
2023/09/20 10:38:11;;;;;;;6.72;2.42;;;;;;;;;;5050480;28;20056;-67
2023/09/20 10:40:59;;;;;;;7.20;2.05;;;;;;;;;;5050715;28;20051;-67
2023/09/20 10:43:37;;;;;;;4.80;2.22;;;;;;;;;;5050517;28;20090;-65
2023/09/20 10:46:07;;;;;;;4.75;2.53;;;;;;;;;;5050366;28;20040;-65
2023/09/20 10:48:33;;;;;;;7.00;2.13;;;;;;;;;;5051353;28;20098;-65
2023/09/20 10:51:03;;;;;;;5.25;2.05;;;;;;;;;;5050321;28;20431;-65
2023/09/20 10:53:45;;;;;;;2.33;1.75;;;;;;;;;;5050909;28;20041;-65
2023/09/20 10:56:12;;;;;;;6.53;2.42;;;;;;;;;;5050940;28;20124;-65
2023/09/20 10:58:42;;;;;;;4.15;2.03;;;;;;;;;;5048116;28;20043;-65
2023/09/20 11:01:10;;;;;;;6.93;2.13;;;;;;;;;;5039194;28;20052;-65
2023/09/20 11:03:36;;;;;;;4.15;2.08;;;;;;;;;;5044428;28;20041;-66
2023/09/20 11:06:02;;;;;;;8.18;2.20;;;;;;;;;;5048873;28;20076;-65
2023/09/20 11:08:28;;;;;;;5.60;2.13;;;;;;;;;;5048298;28;20120;-66
2023/09/20 11:10:59;;;;;;;6.28;2.50;;;;;;;;;;5031378;28;20080;-66
2023/09/20 11:13:25;;;;;;;5.43;2.40;;;;;;;;;;5049529;28;20558;-67
2023/09/20 11:15:51;;;;;;;5.70;1.90;;;;;;;;;;5042562;28;20041;-65
2023/09/20 11:18:19;;;;;;;2.78;1.80;;;;;;;;;;5045035;28;20037;-65
2023/09/20 11:20:45;;;;;;;5.80;1.95;;;;;;;;;;5048206;28;20275;-66
2023/09/20 11:23:13;;;;;;;2.92;1.90;;;;;;;;;;5043088;28;20713;-66
2023/09/20 11:25:41;;;;;;;4.80;2.00;;;;;;;;;;5049290;28;20094;-67
2023/09/20 11:28:08;;;;;;;2.88;2.00;;;;;;;;;;5046446;28;20048;-66
2023/09/20 11:30:35;;;;;;;4.95;2.22;;;;;;;;;;5027898;28;20119;-66
2023/09/20 11:33:01;;;;;;;4.00;2.22;;;;;;;;;;5048258;28;20056;-66
2023/09/20 11:35:34;;;;;;;5.15;2.03;;;;;;;;;;5035775;28;20101;-64
2023/09/20 11:38:01;;;;;;;6.80;2.15;;;;;;;;;;5042950;28;20037;-64
2023/09/20 11:40:30;;;;;;;3.78;1.98;;;;;;;;;;5046066;28;20037;-65
2023/09/20 11:42:56;;;;;;;5.22;2.22;;;;;;;;;;5027351;28;20048;-65
2023/09/20 11:45:24;;;;;;;8.48;2.88;;;;;;;;;;5042519;28;20049;-65
2023/09/20 11:47:51;;;;;;;5.95;2.65;;;;;;;;;;5045697;28;20101;-65
2023/09/20 11:50:17;;;;;;;4.63;2.17;;;;;;;;;;5047690;28;20106;-66
2023/09/20 11:52:47;;;;;;;6.57;2.17;;;;;;;;;;5038204;28;20096;-66
2023/09/20 11:55:13;;;;;;;4.85;2.28;;;;;;;;;;5027057;28;20048;-66
2023/09/20 11:57:45;;;;;;;8.15;2.53;;;;;;;;;;5036112;28;20533;-64
2023/09/20 12:00:16;;;;;;;6.95;2.65;;;;;;;;;;5040820;28;20045;-65
2023/09/20 12:02:42;;;;;;;7.22;2.72;;;;;;;;;;5044143;28;20075;-65
2023/09/20 12:05:08;;;;;;;5.45;2.40;;;;;;;;;;5047273;28;20033;-65
2023/09/20 12:07:35;;;;;;;4.47;2.53;;;;;;;;;;5047707;28;20046;-66
2023/09/20 12:10:01;;;;;;;5.57;2.67;;;;;;;;;;5048693;28;20049;-66
2023/09/20 12:12:27;;;;;;;6.28;2.65;;;;;;;;;;5049492;28;20633;-65
2023/09/20 12:14:53;;;;;;;7.60;2.85;;;;;;;;;;5048986;28;20116;-65
2023/09/20 12:17:20;;;;;;;5.22;2.60;;;;;;;;;;5038257;28;20044;-66
2023/09/20 12:19:46;;;;;;;6.03;2.90;;;;;;;;;;5042284;28;20059;-65
2023/09/20 12:22:12;;;;;;;6.05;2.53;;;;;;;;;;5042817;28;20045;-65
2023/09/20 12:24:38;;;;;;;4.47;2.60;;;;;;;;;;5045858;28;20155;-67
2023/09/20 12:27:05;;;;;;;7.95;2.63;;;;;;;;;;5048371;28;20045;-65
2023/09/20 12:29:31;;;;;;;6.15;3.10;;;;;;;;;;5052387;28;20041;-66
2023/09/20 12:31:57;;;;;;;5.75;2.90;;;;;;;;;;5068100;28;20036;-65
2023/09/20 12:34:23;;;;;;;7.38;3.05;;;;;;;;;;5045916;28;20040;-65
2023/09/20 12:36:49;;;;;;;5.85;2.78;;;;;;;;;;5038499;28;20426;-65
2023/09/20 12:39:16;;;;;;;6.97;2.90;;;;;;;;;;5050407;28;20468;-65
2023/09/20 12:41:42;;;;;;;6.53;2.83;;;;;;;;;;5063609;28;20607;-65
2023/09/20 12:44:09;;;;;;;5.72;2.85;;;;;;;;;;5043425;28;20429;-66
2023/09/20 12:46:36;;;;;;;7.82;2.80;;;;;;;;;;5072343;28;20059;-66
2023/09/20 12:49:04;;;;;;;6.10;2.67;;;;;;;;;;5051185;28;20041;-66
2023/09/20 12:51:30;;;;;;;6.85;2.67;;;;;;;;;;5044090;28;20080;-66
2023/09/20 12:53:56;;;;;;;6.88;3.05;;;;;;;;;;5044678;28;20090;-66
2023/09/20 12:56:23;;;;;;;4.15;2.30;;;;;;;;;;5060327;28;20383;-66
2023/09/20 12:58:50;;;;;;;5.68;2.70;;;;;;;;;;5041016;28;20119;-65
2023/09/20 13:01:16;;;;;;;6.78;2.40;;;;;;;;;;5069875;28;20151;-66
2023/09/20 13:03:43;;;;;;;6.85;2.88;;;;;;;;;;5069084;28;20093;-66
2023/09/20 13:06:14;;;;;;;7.22;2.65;;;;;;;;;;5071967;28;20049;-68
2023/09/20 13:08:40;;;;;;;7.65;2.65;;;;;;;;;;5022386;28;20049;-65
2023/09/20 13:11:10;;;;;;;6.22;2.50;;;;;;;;;;5054303;28;20044;-66
2023/09/20 13:13:38;;;;;;;4.97;2.75;;;;;;;;;;5072313;28;20427;-64
2023/09/20 13:16:06;;;;;;;4.15;2.05;;;;;;;;;;5069507;28;20044;-66
2023/09/20 13:18:32;;;;;;;8.32;2.85;;;;;;;;;;5066489;28;20053;-66
2023/09/20 13:20:58;;;;;;;6.07;2.17;;;;;;;;;;5058655;28;20047;-66
2023/09/20 13:23:26;;;;;;;4.80;2.03;;;;;;;;;;5040857;28;20056;-65
2023/09/20 13:25:53;;;;;;;5.80;2.35;;;;;;;;;;5051769;28;20041;-64
2023/09/20 13:28:19;;;;;;;7.22;2.25;;;;;;;;;;5043785;28;20037;-65
2023/09/20 13:30:45;;;;;;;9.52;2.40;;;;;;;;;;5072626;28;20072;-64
2023/09/20 13:33:12;;;;;;;5.85;2.08;;;;;;;;;;5072667;28;20051;-64
2023/09/20 13:35:39;;;;;;;4.47;2.15;;;;;;;;;;5072583;28;20039;-64
2023/09/20 13:38:05;;;;;;;5.22;2.17;;;;;;;;;;5071900;28;20032;-64
2023/09/20 13:40:31;;;;;;;5.50;2.30;;;;;;;;;;5054463;28;20498;-64
2023/09/20 13:42:58;;;;;;;5.07;2.10;;;;;;;;;;5072451;28;20072;-64
2023/09/20 13:45:26;;;;;;;5.90;2.00;;;;;;;;;;5072111;28;20036;-64
2023/09/20 13:47:53;;;;;;;3.95;2.17;;;;;;;;;;5072744;28;20047;-64
2023/09/20 13:50:19;;;;;;;5.18;2.45;;;;;;;;;;5072256;28;20418;-64
2023/09/20 13:52:46;;;;;;;3.28;1.90;;;;;;;;;;5071465;28;20057;-64
2023/09/20 13:55:17;;;;;;;2.03;1.63;;;;;;;;;;5071865;28;20127;-64
2023/09/20 13:57:47;;;;;;;3.97;2.13;;;;;;;;;;5072103;28;20053;-64
2023/09/20 14:00:14;;;;;;;5.15;1.98;;;;;;;;;;5054090;28;20040;-64
2023/09/20 14:02:41;;;;;;;7.20;2.55;;;;;;;;;;5072611;28;20037;-64
2023/09/20 14:05:16;;;;;;;5.55;2.25;;;;;;;;;;5072169;28;20033;-64
2023/09/20 14:07:46;;;;;;;3.70;1.77;;;;;;;;;;5036559;28;20048;-64
2023/09/20 14:10:13;;;;;;;4.15;1.90;;;;;;;;;;5053657;28;20044;-64
2023/09/20 14:12:42;;;;;;;6.80;2.38;;;;;;;;;;5071729;28;20045;-64
2023/09/20 14:15:12;;;;;;;3.17;1.98;;;;;;;;;;5071236;28;20043;-64
2023/09/20 14:17:40;;;;;;;3.63;1.92;;;;;;;;;;5069001;28;20116;-64
2023/09/20 14:20:08;;;;;;;5.25;2.08;;;;;;;;;;5071866;28;20391;-64
2023/09/20 14:22:34;;;;;;;5.97;2.13;;;;;;;;;;5071053;28;20115;-64
2023/09/20 14:25:00;;;;;;;3.67;1.80;;;;;;;;;;5051476;28;20132;-64
2023/09/20 14:27:26;;;;;;;6.35;2.10;;;;;;;;;;5051887;28;20080;-64
2023/09/20 14:29:52;;;;;;;5.90;2.10;;;;;;;;;;5065080;28;20593;-64
2023/09/20 14:32:20;;;;;;;3.95;2.10;;;;;;;;;;5071370;28;20661;-64
2023/09/20 14:34:46;;;;;;;4.40;2.05;;;;;;;;;;5071005;28;20049;-64
2023/09/20 14:37:12;;;;;;;5.13;2.17;;;;;;;;;;5071228;28;20505;-64
2023/09/20 14:39:38;;;;;;;3.88;2.00;;;;;;;;;;5071593;28;20037;-64
2023/09/20 14:42:04;;;;;;;7.20;2.40;;;;;;;;;;5071251;28;20045;-64
2023/09/20 14:44:30;;;;;;;5.40;2.15;;;;;;;;;;5070526;28;20074;-64
2023/09/20 14:47:00;;;;;;;3.67;2.10;;;;;;;;;;5071300;28;20044;-64
2023/09/20 14:49:26;;;;;;;5.32;2.30;;;;;;;;;;5064725;28;20041;-64
2023/09/20 14:51:53;;;;;;;2.92;1.70;;;;;;;;;;5050706;28;20064;-64
2023/09/20 14:54:22;;;;;;;6.28;2.10;;;;;;;;;;5067058;28;20047;-64
2023/09/20 14:56:48;;;;;;;6.57;2.45;;;;;;;;;;5070747;28;20040;-64
2023/09/20 14:59:15;;;;;;;3.75;1.58;;;;;;;;;;5070890;28;20418;-64
2023/09/20 15:01:41;;;;;;;3.38;1.75;;;;;;;;;;5070916;28;20391;-64
2023/09/20 15:04:07;;;;;;;3.13;2.00;;;;;;;;;;5071009;28;20459;-63
2023/09/20 15:06:33;;;;;;;4.07;2.00;;;;;;;;;;5070917;28;20032;-63
2023/09/20 15:08:59;;;;;;;6.38;2.10;;;;;;;;;;5070949;28;20044;-64
2023/09/20 15:11:25;;;;;;;4.32;1.60;;;;;;;;;;5071203;28;20099;-63
2023/09/20 15:13:53;;;;;;;5.78;1.95;;;;;;;;;;5051748;28;20041;-64
2023/09/20 15:16:19;;;;;;;3.30;1.88;;;;;;;;;;5066129;28;20430;-64